X  Close Metar Aviation Weather Data     EGJJ
Temperature
7°C Temperature
-1°C Dewpoint
57% Humidity



Wind
17 MPH
27 KM/H
8 M/S
15 KTS



80°
East
Current Conditions

Partly Cloudy Partly Cloudy
Pressure 1028.92 (hPa) - 30.38 (inHg)
Visibility 6.2 (mile) - 10 (km)
Airport
Airport-code EGJJ

Location:
Distance: 5 (mi)

Metar:
EGJJ 051620Z 08015KT 050V110 9999 FEW037 07/M01 Q1029

Time: 05-03-2021 16:20 GMT